createdAt,value
2023-02-12T00:00:51.953Z,6.00
2023-02-12T00:03:18.748Z,6.10
2023-02-12T00:05:45.364Z,6.10
2023-02-12T00:08:12.177Z,6.10
2023-02-12T00:10:43.093Z,6.00
2023-02-12T00:13:10.213Z,6.00
2023-02-12T00:15:44.145Z,6.00
2023-02-12T00:18:11.256Z,6.00
2023-02-12T00:20:38.408Z,6.00
2023-02-12T00:23:05.722Z,6.10
2023-02-12T00:25:32.781Z,6.00
2023-02-12T00:27:59.422Z,6.10
2023-02-12T00:30:26.401Z,6.00
2023-02-12T00:32:55.210Z,6.00
2023-02-12T00:35:21.855Z,6.10
2023-02-12T00:37:50.172Z,6.10
2023-02-12T00:40:16.860Z,6.10
2023-02-12T00:42:43.572Z,6.10
2023-02-12T00:49:10.169Z,6.10
2023-02-12T00:51:36.993Z,6.10
2023-02-12T00:54:03.653Z,6.10
2023-02-12T00:56:30.317Z,6.10
2023-02-12T00:58:57.068Z,6.10
2023-02-12T01:01:23.921Z,6.10
2023-02-12T01:03:50.705Z,6.10
2023-02-12T01:06:19.148Z,6.10
2023-02-12T01:08:49.656Z,6.10
2023-02-12T01:11:16.338Z,6.10
2023-02-12T01:13:42.979Z,6.10
2023-02-12T01:16:10.879Z,6.10
2023-02-12T01:18:38.211Z,6.10
2023-02-12T01:21:13.302Z,6.10
2023-02-12T01:23:40.674Z,6.10
2023-02-12T01:26:07.571Z,6.10
2023-02-12T01:28:34.230Z,6.10
2023-02-12T01:31:01.042Z,6.10
2023-02-12T01:33:27.747Z,6.10
2023-02-12T01:35:55.040Z,6.10
2023-02-12T01:38:21.805Z,6.10
2023-02-12T01:40:48.415Z,6.10
2023-02-12T01:43:15.053Z,6.10
2023-02-12T01:45:46.771Z,6.00
2023-02-12T01:48:14.515Z,6.00
2023-02-12T01:50:41.789Z,6.10
2023-02-12T01:53:08.528Z,6.00
2023-02-12T01:55:35.285Z,6.00
2023-02-12T01:58:02.200Z,6.00
2023-02-12T02:00:28.870Z,6.00
2023-02-12T02:03:00.157Z,6.00
2023-02-12T02:05:38.940Z,6.00
2023-02-12T02:08:05.588Z,6.00
2023-02-12T02:10:32.484Z,6.00
2023-02-12T02:13:17.743Z,6.00
2023-02-12T02:15:47.252Z,6.00
2023-02-12T02:18:20.988Z,6.00
2023-02-12T02:21:11.534Z,6.00
2023-02-12T02:23:44.051Z,6.00
2023-02-12T02:26:29.740Z,6.00
2023-02-12T02:28:56.581Z,6.00
2023-02-12T02:31:26.466Z,6.00
2023-02-12T02:33:59.334Z,6.00
2023-02-12T02:36:32.467Z,6.00
2023-02-12T02:39:06.245Z,6.00
2023-02-12T02:41:32.845Z,6.00
2023-02-12T02:44:03.641Z,6.00
2023-02-12T02:46:36.398Z,6.00
2023-02-12T02:49:04.763Z,6.00
2023-02-12T02:51:40.167Z,6.00
2023-02-12T02:54:12.826Z,6.00
2023-02-12T02:56:41.548Z,6.00
2023-02-12T02:59:11.427Z,6.00
2023-02-12T03:01:44.068Z,6.00
2023-02-12T03:04:24.313Z,6.00
2023-02-12T03:06:54.938Z,6.00
2023-02-12T03:09:24.439Z,6.00
2023-02-12T03:11:51.631Z,6.00
2023-02-12T03:14:37.766Z,6.00
2023-02-12T03:17:07.438Z,6.00
2023-02-12T03:19:37.243Z,6.00
2023-02-12T03:22:09.242Z,6.00
2023-02-12T03:24:38.593Z,5.90
2023-02-12T03:27:08.638Z,6.00
2023-02-12T03:29:35.371Z,5.90
2023-02-12T03:32:04.741Z,5.90
2023-02-12T03:34:31.380Z,5.90
2023-02-12T03:37:04.662Z,5.90
2023-02-12T03:39:49.189Z,5.90
2023-02-12T03:42:24.148Z,5.90
2023-02-12T03:44:56.552Z,5.90
2023-02-12T03:47:39.423Z,6.00
2023-02-12T03:50:13.632Z,5.90
2023-02-12T03:52:40.571Z,5.90
2023-02-12T03:55:08.270Z,6.00
2023-02-12T03:57:39.268Z,6.00
2023-02-12T04:00:07.884Z,6.00
2023-02-12T04:02:41.590Z,6.00
2023-02-12T04:05:08.914Z,6.00
2023-02-12T04:07:36.582Z,6.00
2023-02-12T04:10:03.298Z,6.00
2023-02-12T04:12:41.230Z,6.00
2023-02-12T04:15:13.916Z,6.00
2023-02-12T04:17:49.403Z,6.00
2023-02-12T04:20:21.909Z,6.10
2023-02-12T04:22:54.656Z,6.00
2023-02-12T04:25:28.740Z,6.00
2023-02-12T04:28:13.688Z,6.10
2023-02-12T04:30:50.150Z,6.00
2023-02-12T04:33:20.738Z,6.10
2023-02-12T04:36:06.395Z,6.10
2023-02-12T04:38:36.028Z,6.10
2023-02-12T04:41:04.675Z,6.10
2023-02-12T04:43:34.706Z,6.10
2023-02-12T04:46:03.245Z,6.10
2023-02-12T04:48:30.021Z,6.10
2023-02-12T04:50:56.703Z,6.10
2023-02-12T04:53:23.457Z,6.10
2023-02-12T04:55:50.713Z,6.10
2023-02-12T04:58:18.018Z,6.20
2023-02-12T05:00:44.828Z,6.20
2023-02-12T05:03:11.511Z,6.20
2023-02-12T05:05:38.175Z,6.20
2023-02-12T05:08:04.835Z,6.20
2023-02-12T05:10:31.485Z,6.20
2023-02-12T05:12:58.137Z,6.20
2023-02-12T05:15:24.806Z,6.10
2023-02-12T05:17:51.450Z,6.20
2023-02-12T05:20:18.168Z,6.10
2023-02-12T05:22:44.827Z,6.20
2023-02-12T05:25:11.812Z,6.20
2023-02-12T05:27:38.507Z,6.10
2023-02-12T05:30:06.087Z,6.10
2023-02-12T05:32:32.768Z,6.10
2023-02-12T05:34:59.376Z,6.10
2023-02-12T05:37:26.252Z,6.10
2023-02-12T05:39:53.835Z,6.10
2023-02-12T05:42:20.529Z,6.10
2023-02-12T05:44:47.159Z,6.10
2023-02-12T05:47:13.859Z,6.10
2023-02-12T05:49:40.700Z,6.10
2023-02-12T05:52:07.368Z,6.10
2023-02-12T05:54:33.992Z,6.10
2023-02-12T05:57:00.762Z,6.10
2023-02-12T05:59:27.401Z,6.10
2023-02-12T06:01:54.361Z,6.10
2023-02-12T06:04:25.414Z,6.10
2023-02-12T06:06:52.747Z,6.00
2023-02-12T06:09:19.801Z,6.10
2023-02-12T06:11:46.439Z,6.10
2023-02-12T06:14:15.484Z,6.10
2023-02-12T06:16:44.272Z,6.10
2023-02-12T06:19:10.906Z,6.10
2023-02-12T06:21:37.620Z,6.00
2023-02-12T06:24:04.730Z,6.00
2023-02-12T06:26:31.337Z,6.00
2023-02-12T06:28:57.972Z,6.00
2023-02-12T06:31:26.588Z,6.00
2023-02-12T06:33:54.218Z,6.00
2023-02-12T06:36:21.382Z,6.00
2023-02-12T06:38:48.276Z,6.00
2023-02-12T06:41:15.105Z,6.00
2023-02-12T06:43:41.727Z,6.00
2023-02-12T06:46:08.440Z,6.00
2023-02-12T06:48:35.418Z,6.00
2023-02-12T06:51:09.177Z,6.00
2023-02-12T06:53:35.997Z,6.00
2023-02-12T06:56:03.725Z,6.00
2023-02-12T06:58:30.593Z,6.00
2023-02-12T07:00:57.350Z,6.00
2023-02-12T07:03:24.025Z,6.00
2023-02-12T07:05:50.702Z,6.00
2023-02-12T07:08:17.445Z,6.00
2023-02-12T07:10:47.982Z,6.00
2023-02-12T07:13:14.590Z,6.00
2023-02-12T07:15:41.266Z,6.00
2023-02-12T07:18:07.859Z,6.10
2023-02-12T07:20:34.466Z,6.10
2023-02-12T07:23:01.103Z,6.00
2023-02-12T07:25:27.696Z,6.10
2023-02-12T07:27:54.363Z,6.10
2023-02-12T07:30:21.009Z,6.10
2023-02-12T07:32:47.609Z,6.10
2023-02-12T07:35:14.298Z,6.20
2023-02-12T07:37:40.930Z,6.20
2023-02-12T07:40:08.020Z,6.20
2023-02-12T07:42:34.652Z,6.20
2023-02-12T07:45:06.309Z,6.20
2023-02-12T07:47:32.991Z,6.30
2023-02-12T07:49:59.632Z,6.30
2023-02-12T07:52:26.260Z,6.30
2023-02-12T07:54:52.882Z,6.30
2023-02-12T07:57:19.506Z,6.30
2023-02-12T07:59:46.143Z,6.30
2023-02-12T08:02:12.782Z,6.30
2023-02-12T08:04:39.522Z,6.30
2023-02-12T08:07:06.166Z,6.40
2023-02-12T08:09:32.773Z,6.50
2023-02-12T08:11:59.542Z,6.50
2023-02-12T08:14:26.433Z,6.60
2023-02-12T08:16:53.381Z,6.60
2023-02-12T08:19:23.941Z,6.80
2023-02-12T08:21:52.656Z,6.80
2023-02-12T08:24:19.390Z,7.00
2023-02-12T08:26:46.086Z,7.10
2023-02-12T08:29:17.840Z,7.20
2023-02-12T08:31:45.876Z,7.30
2023-02-12T08:34:38.801Z,7.30
2023-02-12T08:37:05.879Z,7.30
2023-02-12T08:39:32.692Z,7.40
2023-02-12T08:42:00.229Z,7.40
2023-02-12T08:44:27.099Z,7.50
2023-02-12T08:46:55.617Z,7.50
2023-02-12T08:49:26.754Z,7.50
2023-02-12T08:51:54.498Z,7.60
2023-02-12T08:54:22.452Z,7.60
2023-02-12T08:56:49.337Z,7.60
2023-02-12T08:59:16.705Z,7.60
2023-02-12T09:01:44.156Z,7.60
2023-02-12T09:04:15.046Z,7.60
2023-02-12T09:06:41.832Z,7.60
2023-02-12T09:09:08.459Z,7.60
2023-02-12T09:11:35.363Z,7.60
2023-02-12T09:14:02.889Z,7.60
2023-02-12T09:16:30.575Z,7.60
2023-02-12T09:18:57.588Z,7.60
2023-02-12T09:21:24.195Z,7.70
2023-02-12T09:23:50.792Z,7.70
2023-02-12T09:26:20.679Z,7.80
2023-02-12T09:28:48.570Z,7.80
2023-02-12T09:31:17.670Z,7.90
2023-02-12T09:33:44.696Z,8.00
2023-02-12T09:36:12.862Z,8.10
2023-02-12T09:38:39.717Z,8.20
2023-02-12T09:41:15.167Z,8.30
2023-02-12T09:43:44.249Z,8.40
2023-02-12T09:46:16.503Z,8.50
2023-02-12T09:48:49.026Z,8.60
2023-02-12T09:51:15.967Z,8.70
2023-02-12T09:53:45.886Z,8.90
2023-02-12T09:56:13.734Z,9.00
2023-02-12T09:58:54.733Z,9.20
2023-02-12T10:01:22.225Z,9.40
2023-02-12T10:03:49.588Z,9.50
2023-02-12T10:06:20.986Z,9.50
2023-02-12T10:08:47.564Z,9.50
2023-02-12T10:11:14.370Z,9.40
2023-02-12T10:13:53.883Z,9.40
2023-02-12T10:16:38.577Z,9.30
2023-02-12T10:19:31.295Z,9.30
2023-02-12T10:22:07.240Z,9.30
2023-02-12T10:24:45.041Z,9.40
2023-02-12T10:27:13.448Z,9.40
2023-02-12T10:29:42.416Z,9.50
2023-02-12T10:32:16.977Z,9.50
2023-02-12T10:34:43.952Z,9.60
2023-02-12T10:37:13.644Z,9.50
2023-02-12T10:39:43.078Z,9.60
2023-02-12T10:42:09.667Z,9.70
2023-02-12T10:44:36.292Z,9.70
2023-02-12T10:47:03.209Z,9.60
2023-02-12T10:49:31.137Z,9.60
2023-02-12T10:52:16.689Z,9.40
2023-02-12T10:54:49.015Z,9.40
2023-02-12T10:57:23.390Z,9.30
2023-02-12T10:59:51.393Z,9.30
2023-02-12T11:02:23.085Z,9.40
2023-02-12T11:04:50.225Z,9.40
2023-02-12T11:07:17.273Z,9.40
2023-02-12T11:09:45.816Z,9.40
2023-02-12T11:12:30.645Z,9.40
2023-02-12T11:15:00.981Z,9.40
2023-02-12T11:17:32.441Z,9.60
2023-02-12T11:20:02.984Z,9.70
2023-02-12T11:22:30.524Z,9.70
2023-02-12T11:25:02.264Z,9.70
2023-02-12T11:27:30.451Z,9.70
2023-02-12T11:30:17.356Z,9.50
2023-02-12T11:32:44.310Z,9.50
2023-02-12T11:35:24.068Z,9.50
2023-02-12T11:37:51.943Z,9.50
2023-02-12T11:40:26.460Z,9.60
2023-02-12T11:42:57.733Z,9.90
2023-02-12T11:45:32.441Z,10.20
2023-02-12T11:47:59.207Z,10.30
2023-02-12T11:50:29.561Z,10.30
2023-02-12T11:52:59.036Z,10.40
2023-02-12T11:55:33.397Z,10.40
2023-02-12T11:58:16.848Z,10.30
2023-02-12T12:00:46.723Z,10.20
2023-02-12T12:03:13.360Z,10.10
2023-02-12T12:05:54.504Z,10.00
2023-02-12T12:08:27.664Z,10.10
2023-02-12T12:11:10.922Z,10.20
2023-02-12T12:13:41.482Z,10.40
2023-02-12T12:16:38.112Z,10.60
2023-02-12T12:19:40.401Z,10.80
2023-02-12T12:22:16.470Z,11.00
2023-02-12T12:24:55.961Z,11.00
2023-02-12T12:27:50.692Z,11.10
2023-02-12T12:30:23.351Z,11.20
2023-02-12T12:32:52.395Z,11.40
2023-02-12T12:35:21.572Z,11.70
2023-02-12T12:37:52.290Z,12.00
2023-02-12T12:40:18.916Z,12.20
2023-02-12T12:43:01.788Z,12.50
2023-02-12T12:45:39.874Z,12.80
2023-02-12T12:48:14.739Z,13.00
2023-02-12T12:51:00.130Z,13.20
2023-02-12T12:53:38.800Z,13.40
2023-02-12T12:56:21.976Z,13.40
2023-02-12T12:59:07.225Z,13.30
2023-02-12T13:01:52.579Z,13.20
2023-02-12T13:04:38.217Z,13.10
2023-02-12T13:07:14.022Z,12.90
2023-02-12T13:09:48.138Z,12.80
2023-02-12T13:12:20.865Z,12.80
2023-02-12T13:14:53.390Z,12.90
2023-02-12T13:17:25.752Z,12.90
2023-02-12T13:20:02.714Z,12.80
2023-02-12T13:22:34.626Z,12.80
2023-02-12T13:25:08.090Z,12.80
2023-02-12T13:27:36.894Z,12.80
2023-02-12T13:30:22.163Z,12.80
2023-02-12T13:32:59.481Z,12.90
2023-02-12T13:35:28.456Z,12.90
2023-02-12T13:37:56.398Z,12.90
2023-02-12T13:40:24.815Z,12.80
2023-02-12T13:42:51.467Z,12.70
2023-02-12T13:45:18.172Z,12.60
2023-02-12T13:47:44.869Z,12.50
2023-02-12T13:50:28.798Z,12.40
2023-02-12T13:53:24.854Z,12.20
2023-02-12T13:56:02.004Z,11.90
2023-02-12T13:58:31.708Z,11.60
2023-02-12T14:01:02.185Z,11.40
2023-02-12T14:03:29.827Z,11.10
2023-02-12T14:06:16.525Z,10.90
2023-02-12T14:09:03.386Z,10.70
2023-02-12T14:11:30.034Z,10.50
2023-02-12T14:14:04.852Z,10.30
2023-02-12T14:16:31.458Z,10.20
2023-02-12T14:19:16.683Z,10.20
2023-02-12T14:21:43.336Z,10.10
2023-02-12T14:24:33.190Z,10.10
2023-02-12T14:26:59.846Z,10.10
2023-02-12T14:29:26.465Z,10.10
2023-02-12T14:31:53.129Z,10.20
2023-02-12T14:34:22.503Z,10.20
2023-02-12T14:37:09.065Z,10.20
2023-02-12T14:39:35.647Z,10.30
2023-02-12T14:42:08.474Z,10.30
2023-02-12T14:44:46.194Z,10.30
2023-02-12T14:47:33.070Z,10.20
2023-02-12T14:50:02.436Z,10.20
2023-02-12T14:52:31.379Z,10.20
2023-02-12T14:55:06.381Z,10.10
2023-02-12T14:57:37.746Z,10.10
2023-02-12T15:00:14.618Z,10.10
2023-02-12T15:02:41.956Z,10.00
2023-02-12T15:05:31.801Z,10.00
2023-02-12T15:08:01.728Z,9.90
2023-02-12T15:10:40.883Z,9.80
2023-02-12T15:13:25.334Z,9.80
2023-02-12T15:15:51.992Z,9.70
2023-02-12T15:18:45.046Z,9.70
2023-02-12T15:21:14.644Z,9.60
2023-02-12T15:23:45.065Z,9.60
2023-02-12T15:26:16.362Z,9.50
2023-02-12T15:28:45.969Z,9.50
2023-02-12T15:31:15.458Z,9.40
2023-02-12T15:33:45.660Z,9.40
2023-02-12T15:36:15.950Z,9.40
2023-02-12T15:38:42.703Z,9.30
2023-02-12T15:41:09.614Z,9.30
2023-02-12T15:43:40.124Z,9.30
2023-02-12T15:46:15.002Z,9.20
2023-02-12T15:48:42.079Z,9.10
2023-02-12T15:51:14.455Z,9.10
2023-02-12T15:53:41.778Z,9.00
2023-02-12T15:56:13.338Z,9.00
2023-02-12T15:58:47.191Z,8.90
2023-02-12T16:01:15.750Z,8.90
2023-02-12T16:03:42.402Z,8.90
2023-02-12T16:06:16.792Z,8.80
2023-02-12T16:08:45.261Z,8.80
2023-02-12T16:11:15.892Z,8.70
2023-02-12T16:13:48.064Z,8.70
2023-02-12T16:16:14.743Z,8.70
2023-02-12T16:18:42.585Z,8.60
2023-02-12T16:21:17.330Z,8.60
2023-02-12T16:23:45.211Z,8.50
2023-02-12T16:26:18.844Z,8.50
2023-02-12T16:28:47.805Z,8.50
2023-02-12T16:31:15.146Z,8.40
2023-02-12T16:33:53.155Z,8.40
2023-02-12T16:36:19.745Z,8.40
2023-02-12T16:38:47.218Z,8.30
2023-02-12T16:41:20.295Z,8.30
2023-02-12T16:43:48.204Z,8.30
2023-02-12T16:46:16.603Z,8.20
2023-02-12T16:48:44.941Z,8.20
2023-02-12T16:51:24.980Z,8.20
2023-02-12T16:53:53.910Z,8.20
2023-02-12T16:56:22.046Z,8.10
2023-02-12T16:58:49.980Z,8.10
2023-02-12T17:01:33.506Z,8.10
2023-02-12T17:04:00.980Z,8.00
2023-02-12T17:06:29.041Z,8.00
2023-02-12T17:08:56.050Z,7.90
2023-02-12T17:11:24.043Z,7.90
2023-02-12T17:13:52.157Z,7.90
2023-02-12T17:16:30.358Z,7.90
2023-02-12T17:18:58.592Z,7.90
2023-02-12T17:21:30.306Z,7.80
2023-02-12T17:23:57.265Z,7.80
2023-02-12T17:26:24.610Z,7.80
2023-02-12T17:28:51.273Z,7.80
2023-02-12T17:31:19.471Z,7.80
2023-02-12T17:33:46.469Z,7.80
2023-02-12T17:36:13.098Z,7.80
2023-02-12T17:38:39.741Z,7.80
2023-02-12T17:41:10.532Z,7.80
2023-02-12T17:43:37.158Z,7.80
2023-02-12T17:46:08.506Z,7.80
2023-02-12T17:48:35.109Z,7.80
2023-02-12T17:51:01.719Z,7.80
2023-02-12T17:53:28.313Z,7.80
2023-02-12T17:55:55.053Z,7.70
2023-02-12T17:58:21.640Z,7.70
2023-02-12T18:00:48.384Z,7.70
2023-02-12T18:03:14.969Z,7.70
2023-02-12T18:05:42.722Z,7.70
2023-02-12T18:08:09.843Z,7.60
2023-02-12T18:10:41.037Z,7.60
2023-02-12T18:13:08.087Z,7.60
2023-02-12T18:15:34.752Z,7.60
2023-02-12T18:18:01.354Z,7.60
2023-02-12T18:20:28.021Z,7.60
2023-02-12T18:22:54.626Z,7.60
2023-02-12T18:25:21.286Z,7.50
2023-02-12T18:27:47.898Z,7.50
2023-02-12T18:30:14.641Z,7.50
2023-02-12T18:32:41.246Z,7.50
2023-02-12T18:35:08.368Z,7.50
2023-02-12T18:37:35.369Z,7.50
2023-02-12T18:40:02.132Z,7.50
2023-02-12T18:42:28.820Z,7.50
2023-02-12T18:44:55.501Z,7.40
2023-02-12T18:47:22.130Z,7.40
2023-02-12T18:49:48.802Z,7.40
2023-02-12T18:52:15.550Z,7.40
2023-02-12T18:54:44.413Z,7.40
2023-02-12T18:57:11.014Z,7.40
2023-02-12T18:59:37.801Z,7.40
2023-02-12T19:02:04.755Z,7.40
2023-02-12T19:04:31.509Z,7.30
2023-02-12T19:06:58.200Z,7.30
2023-02-12T19:09:25.684Z,7.30
2023-02-12T19:11:53.636Z,7.30
2023-02-12T19:14:21.134Z,7.30
2023-02-12T19:16:48.226Z,7.30
2023-02-12T19:19:15.387Z,7.30
2023-02-12T19:21:42.469Z,7.30
2023-02-12T19:24:11.310Z,7.30
2023-02-12T19:26:38.028Z,7.30
2023-02-12T19:29:05.064Z,7.30
2023-02-12T19:31:33.952Z,7.30
2023-02-12T19:34:02.534Z,7.30
2023-02-12T19:36:30.298Z,7.30
2023-02-12T19:38:56.919Z,7.30
2023-02-12T19:41:24.654Z,7.30
2023-02-12T19:43:58.420Z,7.30
2023-02-12T19:46:26.242Z,7.20
2023-02-12T19:48:56.751Z,7.20
2023-02-12T19:51:25.166Z,7.20
2023-02-12T19:53:52.334Z,7.20
2023-02-12T19:56:19.239Z,7.20
2023-02-12T19:58:45.918Z,7.10
2023-02-12T20:01:14.377Z,7.10
2023-02-12T20:03:41.364Z,7.10
2023-02-12T20:06:10.020Z,7.10
2023-02-12T20:08:37.380Z,7.10
2023-02-12T20:11:07.911Z,7.00
2023-02-12T20:13:34.844Z,7.10
2023-02-12T20:16:05.795Z,7.00
2023-02-12T20:18:33.023Z,7.10
2023-02-12T20:20:59.938Z,7.00
2023-02-12T20:23:27.414Z,7.00
2023-02-12T20:25:56.078Z,7.00
2023-02-12T20:28:22.769Z,7.00
2023-02-12T20:30:49.579Z,7.00
2023-02-12T20:33:16.494Z,7.00
2023-02-12T20:35:43.320Z,7.00
2023-02-12T20:38:10.411Z,7.00
2023-02-12T20:40:37.182Z,7.00
2023-02-12T20:43:04.420Z,7.00
2023-02-12T20:45:31.191Z,7.00
2023-02-12T20:47:57.851Z,7.00
2023-02-12T20:50:24.475Z,7.00
2023-02-12T20:52:51.418Z,6.90
2023-02-12T20:55:18.167Z,6.90
2023-02-12T20:57:44.808Z,6.90
2023-02-12T21:00:11.943Z,6.90
2023-02-12T21:02:38.687Z,7.00
2023-02-12T21:05:05.645Z,6.90
2023-02-12T21:07:32.283Z,6.90
2023-02-12T21:09:58.911Z,6.90
2023-02-12T21:12:25.636Z,6.90
2023-02-12T21:14:52.232Z,6.90
2023-02-12T21:17:20.431Z,7.00
2023-02-12T21:19:47.172Z,6.90
2023-02-12T21:22:13.800Z,6.90
2023-02-12T21:24:40.475Z,6.90
2023-02-12T21:27:07.238Z,6.90
2023-02-12T21:29:33.879Z,6.90
2023-02-12T21:32:01.148Z,6.90
2023-02-12T21:34:28.097Z,6.90
2023-02-12T21:36:55.486Z,6.90
2023-02-12T21:39:26.076Z,6.90
2023-02-12T21:41:57.042Z,6.90
2023-02-12T21:44:24.349Z,6.90
2023-02-12T21:46:51.505Z,6.90
2023-02-12T21:49:24.710Z,6.90
2023-02-12T21:51:52.840Z,6.90
2023-02-12T21:54:19.735Z,6.90
2023-02-12T21:56:47.428Z,6.90
2023-02-12T21:59:14.803Z,6.90
2023-02-12T22:01:43.210Z,6.90
2023-02-12T22:04:09.848Z,6.90
2023-02-12T22:06:37.782Z,6.80
2023-02-12T22:09:07.925Z,6.90
2023-02-12T22:11:35.748Z,6.80
2023-02-12T22:14:04.328Z,6.80
2023-02-12T22:16:31.618Z,6.80
2023-02-12T22:19:00.172Z,6.80
2023-02-12T22:21:27.892Z,6.80
2023-02-12T22:23:54.714Z,6.90
2023-02-12T22:26:22.565Z,6.90
2023-02-12T22:28:50.792Z,6.80
2023-02-12T22:31:19.571Z,6.80
2023-02-12T22:33:46.619Z,6.80
2023-02-12T22:36:13.394Z,6.80
2023-02-12T22:38:40.435Z,6.80
2023-02-12T22:41:07.978Z,6.80
2023-02-12T22:43:35.239Z,6.70
2023-02-12T22:46:02.133Z,6.80
2023-02-12T22:48:29.037Z,6.80
2023-02-12T22:50:56.675Z,6.70
2023-02-12T22:53:24.367Z,6.70
2023-02-12T22:55:51.182Z,6.70
2023-02-12T22:58:17.888Z,6.70
2023-02-12T23:00:44.870Z,6.70
2023-02-12T23:03:11.555Z,6.70
2023-02-12T23:05:38.522Z,6.70
2023-02-12T23:08:05.711Z,6.60
2023-02-12T23:10:32.764Z,6.70
2023-02-12T23:12:59.444Z,6.70
2023-02-12T23:15:26.141Z,6.70
2023-02-12T23:17:52.831Z,6.70
2023-02-12T23:20:19.705Z,6.70
2023-02-12T23:22:46.347Z,6.70
2023-02-12T23:25:12.943Z,6.70
2023-02-12T23:27:39.593Z,6.60
2023-02-12T23:30:06.577Z,6.60
2023-02-12T23:32:33.379Z,6.60
2023-02-12T23:35:00.062Z,6.60
2023-02-12T23:37:26.849Z,6.60
2023-02-12T23:39:53.521Z,6.70
2023-02-12T23:42:20.249Z,6.60
2023-02-12T23:44:46.942Z,6.60
2023-02-12T23:47:13.741Z,6.60
2023-02-12T23:49:40.382Z,6.60
2023-02-12T23:52:07.090Z,6.60
2023-02-12T23:54:33.742Z,6.60
2023-02-12T23:57:00.460Z,6.70
2023-02-12T23:59:27.116Z,6.60
